Impacts TAF Board
For situational awareness. Not to be used for flight planning purposes.
IDs:

KATL - Atlanta/Hartsfield-J, GA, US

Issued at 0803 UTC 16 Oct 2018
Updated at 0834 UTC 16 Oct 2018
Potential Impact None Slight Moderate High
Time0752Z 16/09Z 16/10Z 16/11Z 16/12Z 16/13Z 16/14Z 16/15Z 16/16Z 16/17Z 16/18Z 16/19Z 16/20Z 16/21Z>>
Type OBS PRVL PRVL PRVL PRVL PRVL PRVL PRVL PRVL PRVL PRVL PRVL PRVL
  [PRB30]  
PRVL
  [PRB30]  
VIS 9 >6 >6 >6 >6 >6 >6 >6 >6 >6 >6 >6 >6
  [4]  
>6
  [4]  
CIG 220 8 8 8 8 8 8 35 35 35 35 35 40
  [25]  
40
  [25]  
Cover BKN OVC OVC OVC OVC OVC OVC BKN BKN BKN BKN BKN OVC
  [OVC]  
OVC
  [OVC]  
FltCat VFR IFR IFR IFR IFR IFR IFR VFR VFR VFR VFR VFR VFR
  [MVFR]  
VFR
  [MVFR]  
WX -- -- -- -- -- -- -- VCSH VCSH VCSH VCSH VCSH VCSH
  [-SHRA]  
VCSH
  [-SHRA]  
WDir VRB 300 300 300 300 300 300 300 300 300 300 300 320
[320]
320
[320]
WSpd 0 4 4 4 4 4 4 4 4 4 4 4 6
  [6]  
6
  [6]  
WGst -- -- -- -- -- -- -- -- -- -- -- -- --
  [--]  
--
  [--]  
Raw TAF
KATL 160803Z 1608/1712 27004KT P6SM SCT020 BKN080
  FM160900 30004KT P6SM BKN008 OVC012
  FM161500 30004KT P6SM VCSH SCT025 BKN035
  FM162000 32006KT P6SM VCSH OVC040
  PROB30 1620/1702 4SM -SHRA OVC025
  FM170200 33006KT P6SM BKN050
  FM170600 32006KT P6SM SCT012 BKN025
  FM170800 32007KT P6SM BKN006 OVC012


Raw METAR
KATL 160752Z 00000KT 9SM FEW120 SCT180 BKN220 BKN250 22/20 A3012 RMK AO2 SLP190 T02170200
KATL 160652Z 00000KT 9SM FEW020 SCT120 BKN200 22/20 A3013 RMK AO2 SLP193 T02170200
KATL 160552Z 16003KT 9SM FEW020 SCT090 BKN200 BKN250 21/19 A3012 RMK AO2 SLP192 T02110194 10244 20211 58009

METAR Board
Radar Display
Forecast Discussion
For situational awareness. Not to be used for flight planning purposes.